Time;durP1;ratioP1;P1;durP2;ratioP2;P2;SDS_P1;SDS_P2;PMS_P1;PMS_P2;Temp;Humidity;BMP_temperature;BMP_pressure;BME280_temperature;BME280_humidity;BME280_pressure;Samples;Min_cycle;Max_cycle;Signal;HPM_P1;HPM_P2
2021/10/26 00:00:06;;;;;;;38.70;30.33;;;11.80;99.90;;;;;;5022324;28;20125;-64
2021/10/26 00:02:32;;;;;;;40.10;30.98;;;11.70;99.90;;;;;;5019271;28;23982;-65
2021/10/26 00:04:57;;;;;;;33.70;29.73;;;11.70;99.90;;;;;;5021733;28;20538;-64
2021/10/26 00:07:23;;;;;;;38.13;28.92;;;11.70;99.90;;;;;;5019600;28;20048;-64
2021/10/26 00:09:49;;;;;;;34.78;29.98;;;11.70;99.90;;;;;;5025597;28;20048;-64
2021/10/26 00:12:15;;;;;;;38.88;29.10;;;11.70;99.90;;;;;;5019568;28;20038;-65
2021/10/26 00:14:41;;;;;;;38.40;30.10;;;11.70;99.90;;;;;;5027350;28;20033;-64
2021/10/26 00:17:06;;;;;;;38.92;31.33;;;11.60;99.90;;;;;;5017826;28;20379;-64
2021/10/26 00:19:32;;;;;;;41.00;32.25;;;11.70;99.90;;;;;;5025776;28;20033;-64
2021/10/26 00:21:58;;;;;;;38.25;30.65;;;11.70;99.90;;;;;;5018169;28;20069;-65
2021/10/26 00:24:24;;;;;;;40.78;33.15;;;11.60;99.90;;;;;;5023212;28;20038;-65
2021/10/26 00:26:50;;;;;;;46.60;34.05;;;11.60;99.90;;;;;;5018641;28;20611;-65
2021/10/26 00:29:16;;;;;;;43.58;33.22;;;11.60;99.90;;;;;;5020607;28;20112;-65
2021/10/26 00:31:41;;;;;;;42.60;34.10;;;11.60;99.90;;;;;;5020122;28;20100;-65
2021/10/26 00:34:08;;;;;;;48.17;34.47;;;11.60;99.90;;;;;;5018593;28;20462;-65
2021/10/26 00:36:34;;;;;;;44.53;34.38;;;11.60;99.90;;;;;;5023145;28;20068;-64
2021/10/26 00:38:59;;;;;;;41.95;34.95;;;11.60;99.90;;;;;;5013963;28;20045;-65
2021/10/26 00:41:26;;;;;;;41.30;33.80;;;11.60;99.90;;;;;;5022883;28;20033;-65
2021/10/26 00:43:52;;;;;;;41.20;33.78;;;11.50;99.90;;;;;;5020417;28;20041;-65
2021/10/26 00:46:33;;;;;;;43.60;34.05;;;11.60;99.90;;;;;;5022728;28;20140;-65
2021/10/26 00:49:01;;;;;;;43.13;34.00;;;11.70;99.90;;;;;;5015084;28;20049;-65
2021/10/26 00:51:28;;;;;;;42.80;33.25;;;11.70;99.90;;;;;;5024234;28;20053;-64
2021/10/26 00:53:56;;;;;;;42.90;34.97;;;11.70;99.90;;;;;;5016280;28;20124;-64
2021/10/26 00:56:23;;;;;;;43.25;34.92;;;11.70;99.90;;;;;;5017158;28;20046;-65
2021/10/26 00:58:50;;;;;;;45.13;34.42;;;11.70;99.90;;;;;;5016146;28;20077;-65
2021/10/26 01:01:16;;;;;;;40.60;34.03;;;11.70;99.90;;;;;;5025288;28;20067;-65
2021/10/26 01:03:41;;;;;;;44.60;34.22;;;11.60;99.90;;;;;;5016310;28;20049;-65
2021/10/26 01:06:08;;;;;;;40.33;35.63;;;11.60;99.90;;;;;;5018974;28;20445;-65
2021/10/26 01:08:34;;;;;;;44.92;34.88;;;11.60;99.90;;;;;;5020888;28;20029;-65
2021/10/26 01:11:01;;;;;;;44.38;34.20;;;11.60;99.90;;;;;;5019116;28;20064;-65
2021/10/26 01:13:27;;;;;;;40.75;32.97;;;11.70;99.90;;;;;;5021668;28;20476;-65
2021/10/26 01:15:56;;;;;;;42.33;33.88;;;11.60;99.90;;;;;;5016826;28;20413;-65
2021/10/26 01:18:25;;;;;;;41.70;33.17;;;11.60;99.90;;;;;;5021393;28;20355;-64
2021/10/26 01:20:53;;;;;;;45.15;33.28;;;11.60;99.90;;;;;;5018451;28;20042;-65
2021/10/26 01:23:19;;;;;;;40.83;33.00;;;11.50;99.90;;;;;;5022617;28;20034;-64
2021/10/26 01:25:46;;;;;;;46.05;33.63;;;11.50;99.90;;;;;;5015098;28;20049;-64
2021/10/26 01:28:12;;;;;;;45.53;34.20;;;11.40;99.90;;;;;;5022672;28;20041;-64
2021/10/26 01:30:38;;;;;;;47.08;33.33;;;11.40;99.90;;;;;;5020453;28;20034;-64
2021/10/26 01:33:05;;;;;;;47.70;35.70;;;11.40;99.90;;;;;;5019470;28;20041;-64
2021/10/26 01:35:32;;;;;;;51.90;34.13;;;11.40;99.90;;;;;;5013119;28;20042;-65
2021/10/26 01:37:58;;;;;;;44.85;33.30;;;11.40;99.90;;;;;;5021546;28;20060;-65
2021/10/26 01:40:24;;;;;;;49.80;33.97;;;11.30;99.90;;;;;;5009509;28;20025;-65
2021/10/26 01:42:50;;;;;;;42.10;34.42;;;11.30;99.90;;;;;;5021015;28;20034;-65
2021/10/26 01:45:17;;;;;;;50.47;35.05;;;11.40;99.90;;;;;;5013454;28;20120;-65
2021/10/26 01:47:43;;;;;;;46.03;34.97;;;11.30;99.90;;;;;;5020885;28;20489;-64
2021/10/26 01:50:13;;;;;;;50.60;33.67;;;11.30;99.90;;;;;;5016346;28;20033;-65
2021/10/26 01:52:39;;;;;;;50.35;33.67;;;11.20;99.90;;;;;;5024235;28;20551;-65
2021/10/26 01:55:06;;;;;;;47.03;32.72;;;11.30;99.90;;;;;;5024114;28;20045;-65
2021/10/26 01:57:32;;;;;;;51.13;36.65;;;11.20;99.90;;;;;;5018327;28;20103;-65
2021/10/26 01:59:59;;;;;;;46.22;33.10;;;11.20;99.90;;;;;;5021817;28;20058;-65
2021/10/26 02:02:25;;;;;;;52.17;36.08;;;11.20;99.90;;;;;;5017487;28;20029;-65
2021/10/26 02:04:55;;;;;;;53.53;36.03;;;11.20;99.90;;;;;;5020204;28;20049;-65
2021/10/26 02:07:20;;;;;;;48.67;34.15;;;11.20;99.90;;;;;;5021977;28;20033;-65
2021/10/26 02:09:46;;;;;;;52.47;35.08;;;11.20;99.90;;;;;;5018170;28;20037;-65
2021/10/26 02:12:12;;;;;;;51.42;35.67;;;11.30;99.90;;;;;;5014445;28;20481;-65
2021/10/26 02:14:38;;;;;;;54.17;35.75;;;11.30;99.90;;;;;;5022162;28;20374;-65
2021/10/26 02:17:04;;;;;;;50.63;33.92;;;11.30;99.90;;;;;;5015466;28;20033;-65
2021/10/26 02:19:30;;;;;;;55.05;36.85;;;11.30;99.90;;;;;;5021299;28;20038;-65
2021/10/26 02:21:56;;;;;;;55.53;35.67;;;11.30;99.90;;;;;;5014565;28;20029;-65
2021/10/26 02:24:22;;;;;;;53.33;36.13;;;11.30;99.90;;;;;;5020712;28;20129;-65
2021/10/26 02:26:49;;;;;;;53.25;35.20;;;11.30;99.90;;;;;;5013333;28;20120;-65
2021/10/26 02:29:15;;;;;;;50.85;35.63;;;11.40;99.90;;;;;;5021615;28;20033;-65
2021/10/26 02:31:40;;;;;;;56.00;36.97;;;11.30;99.90;;;;;;5021952;28;20065;-65
2021/10/26 02:34:07;;;;;;;65.10;39.03;;;11.30;99.90;;;;;;5016347;28;20570;-65
2021/10/26 02:36:34;;;;;;;57.70;35.88;;;11.30;99.90;;;;;;5019457;28;20041;-65
2021/10/26 02:39:00;;;;;;;57.92;37.47;;;11.30;99.90;;;;;;5017095;28;20038;-65
2021/10/26 02:41:26;;;;;;;69.82;39.40;;;11.30;99.90;;;;;;5021955;28;20375;-65
2021/10/26 02:43:52;;;;;;;67.20;37.67;;;11.30;99.90;;;;;;5013740;28;20045;-65
2021/10/26 02:46:17;;;;;;;71.60;36.15;;;11.30;99.90;;;;;;5019868;28;20049;-65
2021/10/26 02:48:43;;;;;;;58.58;34.15;;;11.30;99.90;;;;;;5013647;28;20041;-65
2021/10/26 02:51:12;;;;;;;65.75;33.70;;;11.30;99.90;;;;;;5025326;28;20072;-65
2021/10/26 02:53:37;;;;;;;68.38;34.03;;;11.30;99.90;;;;;;5017113;28;20052;-65
2021/10/26 02:56:03;;;;;;;92.70;36.00;;;11.20;99.90;;;;;;5022893;28;20166;-65
2021/10/26 02:58:29;;;;;;;51.47;29.45;;;11.20;99.90;;;;;;5012771;28;20329;-65
2021/10/26 03:00:55;;;;;;;52.30;28.58;;;11.20;99.90;;;;;;5014878;28;20417;-65
2021/10/26 03:03:20;;;;;;;48.35;27.50;;;11.20;99.90;;;;;;5015411;28;20033;-65
2021/10/26 03:05:46;;;;;;;42.75;24.23;;;11.10;99.90;;;;;;5021097;28;20116;-65
2021/10/26 03:08:12;;;;;;;43.47;24.83;;;11.10;99.90;;;;;;5015126;28;20033;-65
2021/10/26 03:10:38;;;;;;;44.15;23.67;;;11.00;99.90;;;;;;5020048;28;20041;-65
2021/10/26 03:13:04;;;;;;;50.63;24.65;;;11.00;99.90;;;;;;5019048;28;20029;-65
2021/10/26 03:15:30;;;;;;;39.35;24.52;;;10.90;99.90;;;;;;5016984;28;20045;-65
2021/10/26 03:17:57;;;;;;;44.13;23.83;;;10.90;99.90;;;;;;5018490;28;20034;-65
2021/10/26 03:20:23;;;;;;;42.63;22.98;;;10.80;99.90;;;;;;5012632;28;20100;-65
2021/10/26 03:22:48;;;;;;;35.97;22.60;;;10.80;99.90;;;;;;5015965;28;20117;-65
2021/10/26 03:25:15;;;;;;;55.15;24.85;;;10.70;99.90;;;;;;5011694;28;20042;-65
2021/10/26 03:27:41;;;;;;;47.13;25.77;;;10.60;99.90;;;;;;5022316;28;20330;-65
2021/10/26 03:30:08;;;;;;;61.55;27.35;;;10.60;99.90;;;;;;5015132;28;20048;-65
2021/10/26 03:32:34;;;;;;;41.40;24.42;;;10.50;99.90;;;;;;5022606;28;20509;-65
2021/10/26 03:35:00;;;;;;;60.67;28.98;;;10.40;99.90;;;;;;5017203;28;20038;-65
2021/10/26 03:37:26;;;;;;;59.45;27.83;;;10.30;99.90;;;;;;5018892;28;20095;-65
2021/10/26 03:39:57;;;;;;;89.85;29.08;;;10.30;99.90;;;;;;5011572;28;20034;-65
2021/10/26 03:42:24;;;;;;;45.35;27.30;;;10.20;99.90;;;;;;5014100;28;20049;-65
2021/10/26 03:44:50;;;;;;;70.80;30.95;;;10.10;99.90;;;;;;5014756;28;20045;-65
2021/10/26 03:47:17;;;;;;;59.33;29.45;;;10.00;99.90;;;;;;5022234;28;20041;-65
2021/10/26 03:49:43;;;;;;;103.53;35.80;;;10.00;99.90;;;;;;5018527;28;20052;-65
2021/10/26 03:52:09;;;;;;;88.05;35.60;;;10.00;99.90;;;;;;5016905;28;20033;-65
2021/10/26 03:54:36;;;;;;;123.40;39.92;;;10.00;99.90;;;;;;5021622;28;20096;-65
2021/10/26 03:57:07;;;;;;;115.40;42.30;;;9.90;99.90;;;;;;5011330;28;20540;-65
2021/10/26 03:59:32;;;;;;;101.32;38.25;;;9.90;99.90;;;;;;5019076;28;20050;-65
2021/10/26 04:02:00;;;;;;;97.20;40.78;;;10.00;99.90;;;;;;5013385;28;20056;-65
2021/10/26 04:04:26;;;;;;;133.68;44.15;;;10.00;99.90;;;;;;5020873;28;20036;-65
2021/10/26 04:06:52;;;;;;;214.40;51.88;;;9.90;99.90;;;;;;5015097;28;20041;-65
2021/10/26 04:09:25;;;;;;;89.97;40.97;;;10.00;99.90;;;;;;5021382;28;20512;-65
2021/10/26 04:11:54;;;;;;;125.72;48.47;;;10.00;99.90;;;;;;5017821;28;20572;-65
2021/10/26 04:14:19;;;;;;;138.32;46.70;;;10.00;99.90;;;;;;5017425;28;20042;-65
2021/10/26 04:16:45;;;;;;;136.98;48.20;;;10.10;99.90;;;;;;5016668;28;20831;-65
2021/10/26 04:19:11;;;;;;;110.85;46.05;;;10.10;99.90;;;;;;5019424;28;20040;-65
2021/10/26 04:21:37;;;;;;;91.00;41.40;;;10.10;99.90;;;;;;5016998;28;20057;-65
2021/10/26 04:24:03;;;;;;;173.93;48.25;;;10.10;99.90;;;;;;5015526;28;20060;-65
2021/10/26 04:26:29;;;;;;;92.05;41.67;;;10.10;99.90;;;;;;5010928;28;20422;-65
2021/10/26 04:28:55;;;;;;;90.25;41.08;;;10.10;99.90;;;;;;5015815;28;20496;-66
2021/10/26 04:31:21;;;;;;;100.07;42.25;;;10.10;99.90;;;;;;5013752;28;20045;-65
2021/10/26 04:33:47;;;;;;;90.35;39.42;;;10.10;99.90;;;;;;5017471;28;20050;-65
2021/10/26 04:36:13;;;;;;;222.75;49.47;;;10.10;99.90;;;;;;5014325;28;20029;-65
2021/10/26 04:38:39;;;;;;;87.85;40.10;;;10.10;99.90;;;;;;5012790;28;20457;-65
2021/10/26 04:41:07;;;;;;;70.93;35.58;;;10.10;99.90;;;;;;5017701;28;20070;-65
2021/10/26 04:43:36;;;;;;;90.32;39.10;;;10.00;99.90;;;;;;5011239;28;20125;-65
2021/10/26 04:46:03;;;;;;;91.75;38.70;;;10.00;99.90;;;;;;5022701;28;20549;-65
2021/10/26 04:48:29;;;;;;;98.05;39.78;;;10.10;99.90;;;;;;5011279;28;20061;-65
2021/10/26 04:50:55;;;;;;;106.10;42.50;;;10.00;99.90;;;;;;5016089;28;20084;-65
2021/10/26 04:53:22;;;;;;;92.13;40.72;;;10.10;99.90;;;;;;5016061;28;20489;-65
2021/10/26 04:55:49;;;;;;;109.70;42.78;;;10.10;99.90;;;;;;5025731;28;20059;-65
2021/10/26 04:58:15;;;;;;;150.35;46.88;;;10.20;99.90;;;;;;5019754;28;20120;-65
2021/10/26 05:00:40;;;;;;;110.63;42.95;;;10.30;99.90;;;;;;5024846;28;20125;-65
2021/10/26 05:03:06;;;;;;;123.05;43.33;;;10.40;99.90;;;;;;5019520;28;20069;-65
2021/10/26 05:05:32;;;;;;;119.25;42.50;;;10.40;99.90;;;;;;5021210;28;20084;-65
2021/10/26 05:07:58;;;;;;;177.70;46.97;;;10.40;99.90;;;;;;5017639;28;20054;-66
2021/10/26 05:10:23;;;;;;;179.77;47.85;;;10.40;99.90;;;;;;5024330;28;20084;-65
2021/10/26 05:12:49;;;;;;;117.90;44.78;;;10.40;99.90;;;;;;5014614;28;20037;-65
2021/10/26 05:15:15;;;;;;;132.65;44.70;;;10.50;99.90;;;;;;5020599;28;20045;-65
2021/10/26 05:17:41;;;;;;;167.18;48.70;;;10.50;99.90;;;;;;5024089;28;20469;-65
2021/10/26 05:20:10;;;;;;;128.13;45.92;;;10.50;99.90;;;;;;5019835;28;20073;-65
2021/10/26 05:22:36;;;;;;;175.50;48.63;;;10.50;99.90;;;;;;5028005;28;20084;-65
2021/10/26 05:25:02;;;;;;;167.20;46.60;;;10.50;99.90;;;;;;5016637;28;20072;-65
2021/10/26 05:27:28;;;;;;;132.73;43.58;;;10.60;99.90;;;;;;5024842;28;20469;-65
2021/10/26 05:29:54;;;;;;;183.88;48.70;;;10.60;99.90;;;;;;5017420;28;20440;-65
2021/10/26 05:32:20;;;;;;;114.70;41.45;;;10.60;99.90;;;;;;5024139;28;20103;-65
2021/10/26 05:34:46;;;;;;;121.28;44.50;;;10.60;99.90;;;;;;5018385;28;20041;-65
2021/10/26 05:37:12;;;;;;;128.52;43.58;;;10.60;99.90;;;;;;5026606;28;20052;-65
2021/10/26 05:39:39;;;;;;;118.72;43.45;;;10.60;99.90;;;;;;5019700;28;20464;-65
2021/10/26 05:42:05;;;;;;;113.82;43.67;;;10.60;99.90;;;;;;5021793;28;20081;-65
2021/10/26 05:44:31;;;;;;;125.72;45.22;;;10.60;99.90;;;;;;5014109;28;20428;-65
2021/10/26 05:46:57;;;;;;;135.45;47.22;;;10.70;99.90;;;;;;5025388;28;20041;-65
2021/10/26 05:49:26;;;;;;;131.32;46.70;;;10.70;99.90;;;;;;5018004;28;20401;-65
2021/10/26 05:51:52;;;;;;;142.35;45.78;;;10.70;99.90;;;;;;5023287;28;20529;-65
2021/10/26 05:54:17;;;;;;;211.18;53.70;;;10.70;99.90;;;;;;5015349;28;20072;-65
2021/10/26 05:56:43;;;;;;;160.13;48.25;;;10.70;99.90;;;;;;5020864;28;20042;-65
2021/10/26 05:59:09;;;;;;;153.85;48.80;;;10.70;99.90;;;;;;5024921;28;20033;-65
2021/10/26 06:01:36;;;;;;;228.73;54.75;;;10.80;99.90;;;;;;5020405;28;20441;-65
2021/10/26 06:04:02;;;;;;;120.25;43.50;;;10.70;99.90;;;;;;5027853;28;20448;-65
2021/10/26 06:06:28;;;;;;;149.35;47.17;;;10.80;99.90;;;;;;5020097;28;20053;-65
2021/10/26 06:08:54;;;;;;;116.55;44.80;;;10.80;99.90;;;;;;5027937;28;20501;-65
2021/10/26 06:11:23;;;;;;;145.00;46.58;;;10.80;99.90;;;;;;5021031;28;20034;-65
2021/10/26 06:14:00;;;;;;;124.72;43.95;;;10.80;99.90;;;;;;5022078;28;20052;-65
2021/10/26 06:16:27;;;;;;;141.27;46.17;;;10.80;99.90;;;;;;5014713;28;20092;-65
2021/10/26 06:18:53;;;;;;;133.25;45.47;;;10.80;99.90;;;;;;5022294;28;20088;-65
2021/10/26 06:21:19;;;;;;;116.28;43.38;;;10.80;99.90;;;;;;5019756;28;20026;-65
2021/10/26 06:23:45;;;;;;;241.43;52.50;;;10.90;99.90;;;;;;5021908;28;20056;-65
2021/10/26 06:26:10;;;;;;;153.63;48.03;;;10.80;99.90;;;;;;5012359;28;20042;-65
2021/10/26 06:28:36;;;;;;;103.47;42.58;;;10.80;99.90;;;;;;5022771;28;20044;-65
2021/10/26 06:31:03;;;;;;;102.70;41.05;;;10.80;99.90;;;;;;5013571;28;20568;-65
2021/10/26 06:33:28;;;;;;;165.55;50.22;;;10.80;99.90;;;;;;5027658;28;20203;-65
2021/10/26 06:35:54;;;;;;;103.88;43.22;;;10.90;99.90;;;;;;5026260;28;20116;-65
2021/10/26 06:38:20;;;;;;;104.55;41.55;;;10.90;99.90;;;;;;5017283;28;20134;-65
2021/10/26 06:40:46;;;;;;;100.22;41.83;;;10.90;99.90;;;;;;5028892;28;20334;-65
2021/10/26 06:43:11;;;;;;;102.93;40.13;;;10.90;99.90;;;;;;5017650;28;20025;-65
2021/10/26 06:45:37;;;;;;;96.85;40.13;;;10.90;99.90;;;;;;5023745;28;20128;-65
2021/10/26 06:48:03;;;;;;;95.47;40.45;;;10.90;99.90;;;;;;5021743;28;20064;-65
2021/10/26 06:50:29;;;;;;;118.07;43.47;;;10.90;99.90;;;;;;5024015;28;20048;-65
2021/10/26 06:52:54;;;;;;;93.78;42.35;;;10.90;99.90;;;;;;5019161;28;20079;-65
2021/10/26 06:55:20;;;;;;;103.07;42.03;;;11.00;99.90;;;;;;5027675;28;20255;-65
2021/10/26 06:57:48;;;;;;;108.28;42.83;;;10.90;99.90;;;;;;5017461;28;20524;-65
2021/10/26 07:00:15;;;;;;;88.63;41.15;;;10.90;99.90;;;;;;5023523;28;20132;-65
2021/10/26 07:02:52;;;;;;;89.72;41.67;;;10.90;99.90;;;;;;5014642;28;20049;-65
2021/10/26 07:05:19;;;;;;;133.98;44.08;;;11.00;99.90;;;;;;5027842;28;20037;-65
2021/10/26 07:07:46;;;;;;;102.93;43.55;;;11.00;99.90;;;;;;5019197;28;20048;-65
2021/10/26 07:10:12;;;;;;;85.10;38.90;;;10.90;99.90;;;;;;5026711;28;20117;-65
2021/10/26 07:12:39;;;;;;;90.10;41.22;;;11.00;99.90;;;;;;5020228;28;20099;-65
2021/10/26 07:15:07;;;;;;;90.57;40.63;;;11.00;99.90;;;;;;5022570;28;20440;-65
2021/10/26 07:17:37;;;;;;;87.15;38.45;;;11.00;99.90;;;;;;5021762;28;20057;-65
2021/10/26 07:20:08;;;;;;;78.13;39.35;;;11.00;99.90;;;;;;5012214;28;20063;-65
2021/10/26 07:22:35;;;;;;;82.95;40.53;;;11.00;99.90;;;;;;5018740;28;20042;-65
2021/10/26 07:25:07;;;;;;;89.97;41.03;;;11.10;99.90;;;;;;5019094;28;20038;-65
2021/10/26 07:27:34;;;;;;;76.00;38.38;;;11.10;99.90;;;;;;5021809;28;20061;-65
2021/10/26 07:29:59;;;;;;;75.90;39.75;;;11.20;99.90;;;;;;5009201;28;20359;-65
2021/10/26 07:32:25;;;;;;;117.70;44.15;;;11.20;99.90;;;;;;5015940;28;20069;-65
2021/10/26 07:34:52;;;;;;;72.57;38.22;;;11.20;99.90;;;;;;5016108;28;20052;-65
2021/10/26 07:37:25;;;;;;;78.43;38.63;;;11.20;99.90;;;;;;5023968;28;20444;-65
2021/10/26 07:39:52;;;;;;;82.03;37.28;;;11.30;99.90;;;;;;5012747;28;20034;-65
2021/10/26 07:42:19;;;;;;;76.20;36.13;;;11.30;99.90;;;;;;5016360;28;20041;-65
2021/10/26 07:44:46;;;;;;;72.32;36.25;;;11.30;99.90;;;;;;5011153;28;20445;-65
2021/10/26 07:47:16;;;;;;;74.75;36.78;;;11.30;99.90;;;;;;5024360;28;20052;-65
2021/10/26 07:49:43;;;;;;;86.13;38.97;;;11.30;99.90;;;;;;5010703;28;20048;-65
2021/10/26 07:52:09;;;;;;;64.20;35.35;;;11.40;99.90;;;;;;5020256;28;20099;-65
2021/10/26 07:54:35;;;;;;;67.57;34.53;;;11.40;99.90;;;;;;5005788;28;20062;-65
2021/10/26 07:57:01;;;;;;;54.72;31.95;;;11.50;99.90;;;;;;5015919;28;20033;-65
2021/10/26 07:59:27;;;;;;;62.20;31.25;;;11.60;99.90;;;;;;5011274;28;20068;-65
2021/10/26 08:01:53;;;;;;;58.88;32.42;;;11.70;99.90;;;;;;5021354;28;20038;-65
2021/10/26 08:04:19;;;;;;;55.03;30.23;;;11.80;99.90;;;;;;5018645;28;20049;-65
2021/10/26 08:06:46;;;;;;;54.05;30.85;;;12.00;99.90;;;;;;5011951;28;20104;-65
2021/10/26 08:09:14;;;;;;;42.67;29.38;;;12.10;99.90;;;;;;5016582;28;20484;-65
2021/10/26 08:11:39;;;;;;;43.25;29.30;;;12.10;99.90;;;;;;5008786;28;20037;-65
2021/10/26 08:14:05;;;;;;;50.55;29.38;;;12.20;99.90;;;;;;5013353;28;20041;-65
2021/10/26 08:16:31;;;;;;;49.83;29.65;;;12.40;99.90;;;;;;5007776;28;20069;-65
2021/10/26 08:18:58;;;;;;;39.70;27.00;;;12.60;99.90;;;;;;5019910;28;20054;-65
2021/10/26 08:21:24;;;;;;;40.95;27.30;;;12.80;99.90;;;;;;5018910;28;20041;-65
2021/10/26 08:23:50;;;;;;;42.45;28.75;;;13.00;99.90;;;;;;5022800;28;20107;-65
2021/10/26 08:26:26;;;;;;;39.45;26.13;;;13.10;99.90;;;;;;5014841;28;20040;-65
2021/10/26 08:29:03;;;;;;;39.33;26.45;;;13.20;99.90;;;;;;5024002;28;20444;-65
2021/10/26 08:31:39;;;;;;;37.10;25.40;;;13.30;99.90;;;;;;5016881;28;20040;-66
2021/10/26 08:34:15;;;;;;;32.33;24.17;;;13.40;99.90;;;;;;5020303;28;20106;-65
2021/10/26 08:36:41;;;;;;;32.97;23.25;;;13.40;99.90;;;;;;5014339;28;20046;-65
2021/10/26 08:39:08;;;;;;;38.63;24.05;;;13.50;99.90;;;;;;5020318;28;20582;-65
2021/10/26 08:41:38;;;;;;;34.35;23.42;;;13.70;99.90;;;;;;5015485;28;20115;-65
2021/10/26 08:44:03;;;;;;;33.33;22.13;;;13.90;99.90;;;;;;5024208;28;20042;-65
2021/10/26 08:46:30;;;;;;;33.47;23.67;;;14.00;99.90;;;;;;5021049;28;20045;-65
2021/10/26 08:48:57;;;;;;;34.03;21.83;;;14.10;99.90;;;;;;5019411;28;20045;-65
2021/10/26 08:51:26;;;;;;;30.90;24.23;;;14.40;99.90;;;;;;5021842;28;20042;-65
2021/10/26 08:53:54;;;;;;;31.90;22.50;;;14.60;99.90;;;;;;5019745;28;20508;-65
2021/10/26 08:56:21;;;;;;;28.02;21.45;;;15.00;99.90;;;;;;5020923;28;20061;-65
2021/10/26 08:58:48;;;;;;;26.33;20.98;;;15.50;99.90;;;;;;5018492;28;20041;-66
2021/10/26 09:01:15;;;;;;;28.58;21.17;;;16.10;99.90;;;;;;5027677;28;20061;-66
2021/10/26 09:03:41;;;;;;;24.77;19.48;;;16.50;99.90;;;;;;5014564;28;20038;-66
2021/10/26 09:06:09;;;;;;;22.02;19.65;;;16.70;99.90;;;;;;5020748;28;20095;-66
2021/10/26 09:08:35;;;;;;;26.35;18.40;;;16.80;99.90;;;;;;5017342;28;20034;-66
2021/10/26 09:17:04;;;;;;;24.50;18.23;;;17.00;99.90;;;;;;5024765;28;20076;-66
2021/10/26 09:19:39;;;;;;;25.77;18.38;;;17.10;99.90;;;;;;5017998;28;20482;-66
2021/10/26 09:22:06;;;;;;;24.23;18.88;;;17.20;99.90;;;;;;5016416;28;20029;-66
2021/10/26 09:24:33;;;;;;;23.85;18.58;;;17.30;99.90;;;;;;5020693;28;20496;-66
2021/10/26 09:27:01;;;;;;;24.58;19.70;;;17.50;99.90;;;;;;5018270;28;20064;-66
2021/10/26 09:29:27;;;;;;;24.90;18.08;;;17.40;99.90;;;;;;5013242;28;20056;-66
2021/10/26 09:32:03;;;;;;;24.85;17.38;;;17.30;99.90;;;;;;5017647;28;20486;-66
2021/10/26 09:34:56;;;;;;;22.20;17.88;;;17.30;99.90;;;;;;5015552;28;20065;-66
2021/10/26 09:37:23;;;;;;;26.23;18.42;;;17.00;99.90;;;;;;5019327;28;20162;-66
2021/10/26 09:39:59;;;;;;;26.42;18.20;;;16.70;99.90;;;;;;5024764;28;20091;-66
2021/10/26 09:42:38;;;;;;;24.20;17.98;;;16.30;99.90;;;;;;5031164;28;20443;-66
2021/10/26 09:45:06;;;;;;;22.02;17.85;;;15.90;99.90;;;;;;5014350;28;20125;-66
2021/10/26 09:47:38;;;;;;;25.50;18.35;;;15.60;99.90;;;;;;5020318;28;20048;-66
2021/10/26 09:50:09;;;;;;;22.20;17.10;;;15.70;99.90;;;;;;5015656;28;20038;-66
2021/10/26 09:52:37;;;;;;;24.40;18.60;;;16.10;99.90;;;;;;5020691;28;20044;-66
2021/10/26 09:55:13;;;;;;;26.55;17.75;;;16.50;99.90;;;;;;5015227;28;20041;-66
2021/10/26 09:57:53;;;;;;;22.38;16.67;;;16.90;99.90;;;;;;5021906;28;20041;-66
2021/10/26 10:00:26;;;;;;;21.25;17.17;;;17.20;99.90;;;;;;5013355;28;20056;-66
2021/10/26 10:03:05;;;;;;;22.85;17.55;;;17.00;99.90;;;;;;5016766;28;20195;-66
2021/10/26 10:05:38;;;;;;;21.25;17.42;;;16.90;99.90;;;;;;5012326;28;20046;-66
2021/10/26 10:08:19;;;;;;;24.42;17.27;;;16.80;99.90;;;;;;5023139;28;20041;-66
2021/10/26 10:10:46;;;;;;;25.10;18.65;;;16.70;99.90;;;;;;5012481;28;20054;-66
2021/10/26 10:13:13;;;;;;;23.38;15.77;;;16.50;99.90;;;;;;5016697;28;20485;-66
2021/10/26 10:15:46;;;;;;;22.70;16.80;;;16.50;99.90;;;;;;5015901;28;20050;-66
2021/10/26 10:18:16;;;;;;;24.05;17.55;;;16.60;99.90;;;;;;5016171;28;20049;-66
2021/10/26 10:20:45;;;;;;;26.13;17.83;;;16.50;99.90;;;;;;5014178;28;20531;-66
2021/10/26 10:23:12;;;;;;;26.98;18.08;;;16.30;99.90;;;;;;5018869;28;20559;-66
2021/10/26 10:25:41;;;;;;;24.20;16.55;;;16.20;99.90;;;;;;5023020;28;20401;-65
2021/10/26 10:28:08;;;;;;;21.85;16.67;;;16.20;99.90;;;;;;5024502;28;20366;-65
2021/10/26 10:30:35;;;;;;;27.75;15.38;;;16.20;99.90;;;;;;5016473;28;20153;-66
2021/10/26 10:33:01;;;;;;;22.38;16.17;;;16.30;99.90;;;;;;5017305;28;20358;-65
2021/10/26 10:35:29;;;;;;;20.50;14.05;;;16.40;99.90;;;;;;5019117;28;20045;-66
2021/10/26 10:37:56;;;;;;;18.65;14.48;;;16.60;99.90;;;;;;5021262;28;20088;-66
2021/10/26 10:40:26;;;;;;;21.02;13.82;;;16.90;99.90;;;;;;5019701;28;20038;-66
2021/10/26 10:42:54;;;;;;;17.73;13.02;;;17.20;99.90;;;;;;5019233;28;20045;-66
2021/10/26 10:45:25;;;;;;;16.42;13.57;;;17.10;99.90;;;;;;5015648;28;20056;-66
2021/10/26 10:47:53;;;;;;;18.88;13.00;;;17.10;99.90;;;;;;5014312;28;20069;-66
2021/10/26 10:50:19;;;;;;;20.75;12.60;;;17.40;99.90;;;;;;5018660;28;20056;-66
2021/10/26 10:53:02;;;;;;;18.60;11.30;;;17.60;99.90;;;;;;5010257;28;20076;-65
2021/10/26 10:55:28;;;;;;;17.92;12.55;;;17.70;99.90;;;;;;5020286;28;20061;-65
2021/10/26 10:57:54;;;;;;;19.50;12.35;;;17.40;99.90;;;;;;5014119;28;20034;-66
2021/10/26 11:00:33;;;;;;;15.52;11.30;;;17.00;99.90;;;;;;5017182;28;20054;-66
2021/10/26 11:02:59;;;;;;;17.30;11.77;;;16.70;99.90;;;;;;5016986;28;20102;-66
2021/10/26 11:05:38;;;;;;;17.67;12.15;;;16.50;99.90;;;;;;5018252;28;20220;-65
2021/10/26 11:08:04;;;;;;;19.65;12.10;;;16.30;99.90;;;;;;5013711;28;20042;-66
2021/10/26 11:10:45;;;;;;;17.70;11.52;;;16.10;99.90;;;;;;5018935;28;20042;-66
2021/10/26 11:13:25;;;;;;;18.83;11.27;;;15.90;99.90;;;;;;5010701;28;20131;-66
2021/10/26 11:15:53;;;;;;;18.13;12.07;;;15.70;99.90;;;;;;5016371;28;20054;-66
2021/10/26 11:18:44;;;;;;;17.80;11.82;;;15.50;99.90;;;;;;5019127;28;20038;-66
2021/10/26 11:21:30;;;;;;;15.02;11.43;;;15.40;99.90;;;;;;5021774;28;20201;-66
2021/10/26 11:23:59;;;;;;;19.50;13.63;;;15.20;99.90;;;;;;5012624;28;20072;-65
2021/10/26 11:26:42;;;;;;;19.40;12.82;;;15.10;99.90;;;;;;5017460;28;20054;-65
2021/10/26 11:29:13;;;;;;;13.55;11.13;;;15.00;99.90;;;;;;5017450;28;20045;-65
2021/10/26 11:31:51;;;;;;;16.38;12.02;;;15.00;99.90;;;;;;5022533;28;20049;-66
2021/10/26 11:34:22;;;;;;;15.98;11.38;;;14.90;99.90;;;;;;5015492;28;20140;-66
2021/10/26 11:37:07;;;;;;;20.48;13.02;;;14.90;99.90;;;;;;5014598;28;20373;-66
2021/10/26 11:39:36;;;;;;;22.10;13.75;;;14.80;99.90;;;;;;5019953;28;20040;-66
2021/10/26 11:42:04;;;;;;;19.30;13.70;;;14.80;99.90;;;;;;5018215;28;20109;-66
2021/10/26 11:44:30;;;;;;;22.63;14.93;;;14.80;99.90;;;;;;5013680;28;20041;-66
2021/10/26 11:46:59;;;;;;;19.40;14.32;;;14.80;99.90;;;;;;5013957;28;20053;-66
2021/10/26 11:49:27;;;;;;;19.48;15.18;;;14.70;99.90;;;;;;5016755;28;20049;-66
2021/10/26 11:52:04;;;;;;;21.15;15.40;;;14.70;99.90;;;;;;5020032;28;20042;-66
2021/10/26 11:54:38;;;;;;;25.05;15.90;;;14.70;99.90;;;;;;5017431;28;20048;-66
2021/10/26 11:57:06;;;;;;;24.95;17.00;;;14.60;99.90;;;;;;5021478;28;20042;-67
2021/10/26 11:59:41;;;;;;;24.05;16.35;;;14.60;99.90;;;;;;5015987;28;20061;-66
2021/10/26 12:02:13;;;;;;;24.15;16.80;;;14.50;99.90;;;;;;5024871;28;20095;-66
2021/10/26 12:04:54;;;;;;;23.98;16.58;;;14.50;99.90;;;;;;5022908;28;20056;-66
2021/10/26 12:07:22;;;;;;;20.70;16.85;;;14.50;99.90;;;;;;5026720;28;20077;-66
2021/10/26 12:09:59;;;;;;;23.80;18.38;;;14.50;99.90;;;;;;5024739;28;20053;-66
2021/10/26 12:12:26;;;;;;;21.42;17.52;;;14.40;99.90;;;;;;5042782;28;20087;-66
2021/10/26 12:14:56;;;;;;;24.73;18.48;;;14.40;99.90;;;;;;5022383;28;20048;-66
2021/10/26 12:17:23;;;;;;;24.83;18.13;;;14.40;99.90;;;;;;5027311;28;20354;-66
2021/10/26 12:20:01;;;;;;;23.50;19.33;;;14.40;99.90;;;;;;5022896;28;20068;-67
2021/10/26 12:22:33;;;;;;;27.42;19.08;;;14.50;99.90;;;;;;5028931;28;20049;-66
2021/10/26 12:25:26;;;;;;;25.30;19.45;;;14.50;99.90;;;;;;5021965;28;20041;-66
2021/10/26 12:27:55;;;;;;;26.08;20.65;;;14.50;99.90;;;;;;5023511;28;20130;-66
2021/10/26 12:30:49;;;;;;;26.85;21.23;;;14.50;99.90;;;;;;5023436;28;20037;-66
2021/10/26 12:33:19;;;;;;;25.35;20.42;;;14.40;99.90;;;;;;5024160;28;20103;-66
2021/10/26 12:35:50;;;;;;;26.30;20.92;;;14.40;99.90;;;;;;5021943;28;20055;-66